Time;durP1;ratioP1;P1;durP2;ratioP2;P2;SDS_P1;SDS_P2;PMS_P1;PMS_P2;Temp;Humidity;BMP_temperature;BMP_pressure;BME280_temperature;BME280_humidity;BME280_pressure;Samples;Min_cycle;Max_cycle;Signal;HPM_P1;HPM_P2
2022/04/09 00:00:43;;;;;;;;;;;22.70;50.90;;;;;;5075740;28;935;-37
2022/04/09 00:03:10;;;;;;;;;;;22.70;50.70;;;;;;5075651;28;1040;-37
2022/04/09 00:05:37;;;;;;;;;;;22.70;50.70;;;;;;5075990;28;992;-38
2022/04/09 00:08:04;;;;;;;;;;;22.70;50.80;;;;;;5075760;28;1790;-38
2022/04/09 00:10:31;;;;;;;;;;;22.70;50.80;;;;;;5074761;28;925;-38
2022/04/09 00:12:57;;;;;;;;;;;22.60;50.90;;;;;;5075533;28;952;-37
2022/04/09 00:15:24;;;;;;;;;;;22.70;50.70;;;;;;5075668;28;1897;-37
2022/04/09 00:17:52;;;;;;;;;;;22.60;50.60;;;;;;5076382;28;979;-35
2022/04/09 00:20:19;;;;;;;;;;;22.60;50.60;;;;;;5075460;28;925;-34
2022/04/09 00:22:46;;;;;;;;;;;22.60;50.70;;;;;;5076053;28;1110;-36
2022/04/09 00:25:21;;;;;;;;;;;22.60;50.40;;;;;;5078740;28;947;-35
2022/04/09 00:27:47;;;;;;;;;;;22.60;50.40;;;;;;5079868;28;932;-35
2022/04/09 00:30:14;;;;;;;;;;;22.60;50.50;;;;;;5079548;28;992;-33
2022/04/09 00:32:41;;;;;;;;;;;22.60;50.40;;;;;;5079448;28;1015;-35
2022/04/09 00:35:10;;;;;;;;;;;22.60;50.40;;;;;;5078592;28;1906;-34
2022/04/09 00:37:46;;;;;;;;;;;22.60;50.40;;;;;;5079428;28;1005;-33
2022/04/09 00:40:13;;;;;;;;;;;22.60;50.40;;;;;;5079325;28;1034;-35
2022/04/09 00:42:41;;;;;;;;;;;22.60;50.60;;;;;;5078472;28;913;-34
2022/04/09 00:45:09;;;;;;;;;;;22.60;50.20;;;;;;5078360;28;1588;-37
2022/04/09 00:47:35;;;;;;;;;;;22.60;50.30;;;;;;5079107;28;933;-33
2022/04/09 00:50:02;;;;;;;;;;;22.60;50.20;;;;;;5077820;28;927;-35
2022/04/09 00:52:32;;;;;;;;;;;22.60;50.20;;;;;;5078071;28;1032;-34
2022/04/09 00:55:00;;;;;;;;;;;22.60;50.20;;;;;;5078279;28;1902;-35
2022/04/09 00:57:27;;;;;;;;;;;22.60;50.20;;;;;;5078264;28;992;-34
2022/04/09 00:59:55;;;;;;;;;;;22.60;50.20;;;;;;5078861;28;996;-34
2022/04/09 01:02:22;;;;;;;;;;;22.60;50.30;;;;;;5078983;28;985;-34
2022/04/09 01:04:49;;;;;;;;;;;22.50;50.10;;;;;;5079652;28;1014;-36
2022/04/09 01:07:17;;;;;;;;;;;22.50;50.20;;;;;;5077922;28;977;-36
2022/04/09 01:09:45;;;;;;;;;;;22.50;50.30;;;;;;5078716;28;1015;-34
2022/04/09 01:12:14;;;;;;;;;;;22.50;50.20;;;;;;5077255;28;999;-33
2022/04/09 01:14:41;;;;;;;;;;;22.50;50.40;;;;;;5078333;28;1905;-34
2022/04/09 01:17:07;;;;;;;;;;;22.50;50.30;;;;;;5077872;28;940;-34
2022/04/09 01:19:34;;;;;;;;;;;22.50;50.30;;;;;;5077024;28;1006;-38
2022/04/09 01:22:03;;;;;;;;;;;22.40;50.20;;;;;;5078851;28;1025;-35
2022/04/09 01:24:30;;;;;;;;;;;22.40;50.20;;;;;;5078930;28;1193;-34
2022/04/09 01:26:58;;;;;;;;;;;22.40;50.30;;;;;;5077954;28;983;-35
2022/04/09 01:29:25;;;;;;;;;;;22.40;50.20;;;;;;5077918;28;1009;-35
2022/04/09 01:31:51;;;;;;;;;;;22.40;50.30;;;;;;5079209;28;932;-33
2022/04/09 01:34:18;;;;;;;;;;;22.40;50.20;;;;;;5077892;28;1897;-34
2022/04/09 01:36:45;;;;;;;;;;;22.40;50.20;;;;;;5078369;28;971;-35
2022/04/09 01:39:17;;;;;;;;;;;22.40;50.20;;;;;;5077449;28;944;-34
2022/04/09 01:41:44;;;;;;;;;;;22.40;50.20;;;;;;5078067;28;1047;-35
2022/04/09 01:44:11;;;;;;;;;;;22.30;50.20;;;;;;5077601;28;1190;-35
2022/04/09 01:46:41;;;;;;;;;;;22.40;50.00;;;;;;5077089;28;1009;-35
2022/04/09 01:49:07;;;;;;;;;;;22.40;50.20;;;;;;5077530;28;1122;-33
2022/04/09 01:51:34;;;;;;;;;;;22.40;50.20;;;;;;5077528;28;974;-35
2022/04/09 01:54:00;;;;;;;;;;;22.30;50.10;;;;;;5077554;28;924;-35
2022/04/09 01:56:29;;;;;;;;;;;22.30;50.00;;;;;;5077435;28;1902;-35
2022/04/09 01:58:56;;;;;;;;;;;22.30;50.10;;;;;;5077065;28;944;-35
2022/04/09 02:01:22;;;;;;;;;;;22.30;50.10;;;;;;5078341;28;972;-35
2022/04/09 02:03:49;;;;;;;;;;;22.30;50.20;;;;;;5078280;28;994;-36
2022/04/09 02:06:15;;;;;;;;;;;22.30;50.00;;;;;;5077948;28;975;-34
2022/04/09 02:08:42;;;;;;;;;;;22.30;50.00;;;;;;5077024;28;1027;-34
2022/04/09 02:11:09;;;;;;;;;;;22.30;50.00;;;;;;5077291;28;999;-36
2022/04/09 02:13:37;;;;;;;;;;;22.30;50.00;;;;;;5076764;28;1023;-33
2022/04/09 02:16:04;;;;;;;;;;;22.30;50.10;;;;;;5076900;28;1987;-34
2022/04/09 02:18:31;;;;;;;;;;;22.30;50.00;;;;;;5077423;28;1153;-34
2022/04/09 02:20:57;;;;;;;;;;;22.20;49.90;;;;;;5077734;28;937;-36
2022/04/09 02:23:24;;;;;;;;;;;22.30;50.00;;;;;;5077420;28;1111;-35
2022/04/09 02:25:51;;;;;;;;;;;22.20;50.00;;;;;;5076805;28;935;-34
2022/04/09 02:28:18;;;;;;;;;;;22.30;50.00;;;;;;5078577;28;853;-34
2022/04/09 02:30:46;;;;;;;;;;;22.20;50.00;;;;;;5077578;28;993;-36
2022/04/09 02:33:13;;;;;;;;;;;22.20;50.10;;;;;;5078177;28;1221;-34
2022/04/09 02:35:39;;;;;;;;;;;22.20;50.00;;;;;;5076895;28;1909;-35
2022/04/09 02:38:07;;;;;;;;;;;22.20;50.00;;;;;;5077449;28;1030;-34
2022/04/09 02:40:34;;;;;;;;;;;22.20;50.00;;;;;;5076996;28;1026;-34
2022/04/09 02:43:00;;;;;;;;;;;22.20;50.00;;;;;;5076650;28;992;-36
2022/04/09 02:45:27;;;;;;;;;;;22.20;49.90;;;;;;5076569;28;1099;-35
2022/04/09 02:47:55;;;;;;;;;;;22.20;49.90;;;;;;5076224;28;949;-35
2022/04/09 02:50:25;;;;;;;;;;;22.20;50.00;;;;;;5075829;28;1031;-34
2022/04/09 02:52:52;;;;;;;;;;;22.20;49.80;;;;;;5076385;28;1000;-35
2022/04/09 02:55:19;;;;;;;;;;;22.20;49.90;;;;;;5077497;28;1915;-35
2022/04/09 02:57:45;;;;;;;;;;;22.20;50.00;;;;;;5076630;28;1007;-35
2022/04/09 03:00:13;;;;;;;;;;;22.20;50.00;;;;;;5077054;28;1026;-35
2022/04/09 03:02:40;;;;;;;;;;;22.20;50.00;;;;;;5077722;28;953;-36
2022/04/09 03:05:09;;;;;;;;;;;22.10;49.90;;;;;;5076559;28;1005;-35
2022/04/09 03:07:35;;;;;;;;;;;22.20;50.00;;;;;;5075263;28;1412;-34
2022/04/09 03:10:02;;;;;;;;;;;22.10;49.90;;;;;;5076069;28;951;-35
2022/04/09 03:12:29;;;;;;;;;;;22.10;49.90;;;;;;5075905;28;997;-35
2022/04/09 03:14:56;;;;;;;;;;;22.10;49.90;;;;;;5075083;28;1898;-35
2022/04/09 03:17:23;;;;;;;;;;;22.10;49.90;;;;;;5075253;28;966;-33
2022/04/09 03:19:49;;;;;;;;;;;22.10;49.90;;;;;;5075636;28;998;-36
2022/04/09 03:22:17;;;;;;;;;;;22.10;49.90;;;;;;5074914;28;997;-35
2022/04/09 03:24:44;;;;;;;;;;;22.10;49.90;;;;;;5076301;28;943;-34
2022/04/09 03:27:11;;;;;;;;;;;22.10;49.90;;;;;;5076549;28;963;-35
2022/04/09 03:29:38;;;;;;;;;;;22.00;49.80;;;;;;5074970;28;924;-34
2022/04/09 03:32:05;;;;;;;;;;;22.10;49.80;;;;;;5075514;28;1026;-35
2022/04/09 03:34:32;;;;;;;;;;;22.10;49.90;;;;;;5075571;28;988;-34
2022/04/09 03:36:59;;;;;;;;;;;22.10;49.90;;;;;;5075831;28;1978;-35
2022/04/09 03:39:27;;;;;;;;;;;22.10;49.80;;;;;;5075259;28;1030;-33
2022/04/09 03:41:53;;;;;;;;;;;22.10;49.80;;;;;;5075041;28;984;-35
2022/04/09 03:44:20;;;;;;;;;;;22.10;49.70;;;;;;5074851;28;1051;-36
2022/04/09 03:46:47;;;;;;;;;;;22.10;49.70;;;;;;5075343;28;955;-35
2022/04/09 03:49:15;;;;;;;;;;;22.00;49.70;;;;;;5075295;28;943;-35
2022/04/09 03:51:41;;;;;;;;;;;22.00;49.70;;;;;;5075651;28;1026;-34
2022/04/09 03:54:08;;;;;;;;;;;22.00;49.70;;;;;;5075860;28;911;-34
2022/04/09 03:56:40;;;;;;;;;;;22.00;49.80;;;;;;5075037;28;1897;-35
2022/04/09 03:59:06;;;;;;;;;;;22.00;49.70;;;;;;5076610;28;943;-35
2022/04/09 04:01:33;;;;;;;;;;;22.00;49.70;;;;;;5079968;28;1003;-34
2022/04/09 04:04:00;;;;;;;;;;;22.00;49.80;;;;;;5079651;28;1003;-34
2022/04/09 04:06:26;;;;;;;;;;;22.00;49.70;;;;;;5078446;28;952;-35
2022/04/09 04:08:55;;;;;;;;;;;22.00;49.80;;;;;;5078209;28;1012;-35
2022/04/09 04:11:22;;;;;;;;;;;22.00;49.70;;;;;;5079281;28;988;-35
2022/04/09 04:13:50;;;;;;;;;;;22.00;49.70;;;;;;5079244;28;979;-35
2022/04/09 04:16:17;;;;;;;;;;;21.90;49.70;;;;;;5078179;28;1982;-36
2022/04/09 04:18:43;;;;;;;;;;;21.90;49.60;;;;;;5078736;28;961;-34
2022/04/09 04:21:10;;;;;;;;;;;22.00;49.50;;;;;;5078724;28;1008;-34
2022/04/09 04:23:37;;;;;;;;;;;22.00;49.60;;;;;;5078697;28;1023;-35
2022/04/09 04:26:04;;;;;;;;;;;21.90;49.50;;;;;;5078833;28;1004;-34
2022/04/09 04:28:31;;;;;;;;;;;22.00;49.50;;;;;;5079562;28;1103;-34
2022/04/09 04:30:59;;;;;;;;;;;22.00;49.50;;;;;;5080425;28;915;-36
2022/04/09 04:33:25;;;;;;;;;;;21.90;49.50;;;;;;5080205;28;1012;-35
2022/04/09 04:35:52;;;;;;;;;;;21.90;49.40;;;;;;5078917;28;1985;-34
2022/04/09 04:38:19;;;;;;;;;;;21.90;49.40;;;;;;5079364;28;898;-34
2022/04/09 04:40:46;;;;;;;;;;;22.00;49.30;;;;;;5079344;28;920;-35
2022/04/09 04:43:13;;;;;;;;;;;22.00;49.60;;;;;;5079549;28;979;-33
2022/04/09 04:45:39;;;;;;;;;;;21.90;49.40;;;;;;5078763;28;1134;-36
2022/04/09 04:48:08;;;;;;;;;;;21.90;50.50;;;;;;5079193;28;1004;-33
2022/04/09 04:50:36;;;;;;;;;;;21.90;49.30;;;;;;5077606;28;940;-35
2022/04/09 04:53:03;;;;;;;;;;;21.90;49.30;;;;;;5078641;28;1006;-34
2022/04/09 04:55:30;;;;;;;;;;;21.90;49.40;;;;;;5078224;28;1977;-35
2022/04/09 04:57:56;;;;;;;;;;;21.90;49.30;;;;;;5078675;28;1009;-35
2022/04/09 05:00:24;;;;;;;;;;;21.90;49.40;;;;;;5079176;28;1000;-34
2022/04/09 05:02:51;;;;;;;;;;;21.90;49.40;;;;;;5079214;28;1020;-35
2022/04/09 05:05:19;;;;;;;;;;;21.90;49.40;;;;;;5078585;28;932;-33
2022/04/09 05:07:47;;;;;;;;;;;21.90;49.40;;;;;;5079425;28;977;-33
2022/04/09 05:10:15;;;;;;;;;;;21.90;49.40;;;;;;5077805;28;1019;-35
2022/04/09 05:12:41;;;;;;;;;;;21.90;49.30;;;;;;5078251;28;997;-34
2022/04/09 05:15:09;;;;;;;;;;;21.90;49.30;;;;;;5078070;28;1044;-34
2022/04/09 05:17:36;;;;;;;;;;;21.90;49.20;;;;;;5077901;28;1902;-35
2022/04/09 05:20:03;;;;;;;;;;;21.90;49.30;;;;;;5078057;28;953;-34
2022/04/09 05:22:32;;;;;;;;;;;21.90;49.30;;;;;;5078150;28;980;-35
2022/04/09 05:24:59;;;;;;;;;;;21.90;49.30;;;;;;5078146;28;944;-35
2022/04/09 05:27:26;;;;;;;;;;;21.90;49.30;;;;;;5078015;28;967;-34
2022/04/09 05:29:53;;;;;;;;;;;21.90;49.20;;;;;;5078056;28;1032;-35
2022/04/09 05:32:20;;;;;;;;;;;21.80;49.20;;;;;;5078036;28;951;-33
2022/04/09 05:34:47;;;;;;;;;;;21.80;49.30;;;;;;5078272;28;756;-35
2022/04/09 05:37:14;;;;;;;;;;;21.90;49.20;;;;;;5077839;28;1902;-36
2022/04/09 05:39:43;;;;;;;;;;;21.80;49.10;;;;;;5076890;28;948;-34
2022/04/09 05:42:09;;;;;;;;;;;21.80;49.20;;;;;;5077514;28;1076;-35
2022/04/09 05:44:36;;;;;;;;;;;21.80;49.20;;;;;;5076413;28;1201;-35
2022/04/09 05:47:03;;;;;;;;;;;21.80;49.10;;;;;;5076864;28;861;-33
2022/04/09 05:49:30;;;;;;;;;;;21.80;49.10;;;;;;5076101;28;981;-34
2022/04/09 05:51:57;;;;;;;;;;;21.90;49.10;;;;;;5076013;28;962;-34
2022/04/09 05:54:24;;;;;;;;;;;21.90;49.10;;;;;;5077484;28;950;-40
2022/04/09 05:56:52;;;;;;;;;;;21.90;49.00;;;;;;5076768;28;1977;-40
2022/04/09 05:59:18;;;;;;;;;;;21.90;48.90;;;;;;5076387;28;984;-40
2022/04/09 06:01:45;;;;;;;;;;;21.80;49.00;;;;;;5076113;28;914;-39
2022/04/09 06:04:14;;;;;;;;;;;21.80;49.20;;;;;;5077508;28;908;-39
2022/04/09 06:06:40;;;;;;;;;;;21.80;49.30;;;;;;5076414;28;1320;-37
2022/04/09 06:09:07;;;;;;;;;;;21.80;49.10;;;;;;5076951;28;932;-40
2022/04/09 06:11:34;;;;;;;;;;;21.80;49.00;;;;;;5076354;28;931;-37
2022/04/09 06:14:02;;;;;;;;;;;21.80;49.00;;;;;;5077276;28;1005;-38
2022/04/09 06:16:30;;;;;;;;;;;21.80;49.00;;;;;;5076544;28;1942;-37
2022/04/09 06:18:57;;;;;;;;;;;21.80;49.10;;;;;;5076042;28;1027;-39
2022/04/09 06:21:24;;;;;;;;;;;21.80;49.00;;;;;;5075642;28;967;-47
2022/04/09 06:23:50;;;;;;;;;;;21.90;49.20;;;;;;5076287;28;939;-46
2022/04/09 06:26:17;;;;;;;;;;;21.80;49.20;;;;;;5076118;28;1027;-49
2022/04/09 06:28:44;;;;;;;;;;;21.80;49.10;;;;;;5076141;28;1014;-47
2022/04/09 06:31:12;;;;;;;;;;;21.80;49.10;;;;;;5075717;28;1001;-43
2022/04/09 06:33:39;;;;;;;;;;;21.90;49.60;;;;;;5076562;28;1004;-46
2022/04/09 06:36:05;;;;;;;;;;;21.90;49.20;;;;;;5076108;28;1897;-46
2022/04/09 06:38:33;;;;;;;;;;;21.90;49.10;;;;;;5076041;28;987;-40
2022/04/09 06:41:00;;;;;;;;;;;22.00;49.20;;;;;;5076335;28;984;-40
2022/04/09 06:43:27;;;;;;;;;;;22.00;49.20;;;;;;5075498;28;1058;-39
2022/04/09 06:45:54;;;;;;;;;;;22.10;49.00;;;;;;5075364;28;979;-41
2022/04/09 06:48:22;;;;;;;;;;;22.10;48.80;;;;;;5075507;28;956;-40
2022/04/09 06:50:48;;;;;;;;;;;22.10;48.80;;;;;;5074678;28;960;-37
2022/04/09 06:53:15;;;;;;;;;;;22.20;48.80;;;;;;5075080;28;985;-36
2022/04/09 06:55:42;;;;;;;;;;;22.20;48.60;;;;;;5075727;28;1004;-36
2022/04/09 06:58:08;;;;;;;;;;;22.00;49.00;;;;;;5076127;28;1984;-35
2022/04/09 07:00:35;;;;;;;;;;;22.00;49.10;;;;;;5075705;28;944;-35
2022/04/09 07:03:02;;;;;;;;;;;21.90;49.00;;;;;;5075494;28;1011;-35
2022/04/09 07:05:31;;;;;;;;;;;21.90;49.00;;;;;;5075724;28;1226;-35
2022/04/09 07:07:57;;;;;;;;;;;21.90;48.90;;;;;;5075151;28;1023;-38
2022/04/09 07:10:24;;;;;;;;;;;21.90;48.90;;;;;;5075492;28;1027;-38
2022/04/09 07:12:51;;;;;;;;;;;21.90;49.00;;;;;;5075832;28;937;-42
2022/04/09 07:15:18;;;;;;;;;;;21.90;49.00;;;;;;5075009;28;1031;-38
2022/04/09 07:17:45;;;;;;;;;;;21.80;48.70;;;;;;5075356;28;1917;-39
2022/04/09 07:20:12;;;;;;;;;;;21.90;49.00;;;;;;5075678;28;949;-39
2022/04/09 07:22:40;;;;;;;;;;;21.90;48.90;;;;;;5074544;28;912;-41
2022/04/09 07:25:07;;;;;;;;;;;21.90;49.10;;;;;;5075280;28;880;-40
2022/04/09 07:27:35;;;;;;;;;;;21.90;48.90;;;;;;5074327;28;885;-41
2022/04/09 07:30:02;;;;;;;;;;;21.80;48.80;;;;;;5074004;28;1001;-39
2022/04/09 07:32:28;;;;;;;;;;;21.90;49.10;;;;;;5074465;28;993;-40
2022/04/09 07:34:55;;;;;;;;;;;21.90;48.90;;;;;;5077214;28;992;-39
2022/04/09 07:37:22;;;;;;;;;;;21.80;48.80;;;;;;5078697;28;1905;-39
2022/04/09 07:39:50;;;;;;;;;;;21.80;48.90;;;;;;5079323;28;919;-39
2022/04/09 07:42:16;;;;;;;;;;;21.80;48.90;;;;;;5078072;28;1416;-39
2022/04/09 07:44:43;;;;;;;;;;;21.80;48.70;;;;;;5077860;28;1202;-42
2022/04/09 07:47:10;;;;;;;;;;;21.80;48.80;;;;;;5077360;28;1003;-39
2022/04/09 07:49:37;;;;;;;;;;;21.80;48.80;;;;;;5078208;28;1001;-38
2022/04/09 07:52:04;;;;;;;;;;;21.80;48.80;;;;;;5077172;28;1018;-42
2022/04/09 07:54:32;;;;;;;;;;;21.80;48.80;;;;;;5078105;28;953;-39
2022/04/09 07:57:01;;;;;;;;;;;21.80;48.80;;;;;;5078255;28;1906;-39
2022/04/09 07:59:28;;;;;;;;;;;21.80;48.90;;;;;;5077974;28;1020;-39
2022/04/09 08:01:54;;;;;;;;;;;21.80;48.70;;;;;;5081473;28;1079;-41
2022/04/09 08:04:21;;;;;;;;;;;21.80;48.80;;;;;;5099542;28;999;-41
2022/04/09 08:06:48;;;;;;;;;;;21.80;48.80;;;;;;5099062;28;993;-41
2022/04/09 08:09:15;;;;;;;;;;;21.80;48.60;;;;;;5097456;28;1041;-39
2022/04/09 08:11:41;;;;;;;;;;;21.90;48.70;;;;;;5096997;28;944;-42
2022/04/09 08:14:09;;;;;;;;;;;22.00;48.50;;;;;;5098593;28;1009;-39
2022/04/09 08:16:38;;;;;;;;;;;22.00;48.30;;;;;;5098737;28;1906;-42
2022/04/09 08:19:04;;;;;;;;;;;22.00;48.20;;;;;;5097457;28;1012;-41
2022/04/09 08:21:31;;;;;;;;;;;22.00;48.20;;;;;;5096510;28;1016;-39
2022/04/09 08:23:58;;;;;;;;;;;22.00;48.10;;;;;;5095590;28;1074;-40
2022/04/09 08:26:24;;;;;;;;;;;22.10;48.30;;;;;;5097438;28;842;-39
2022/04/09 08:28:51;;;;;;;;;;;22.10;48.10;;;;;;5095306;28;973;-41
2022/04/09 08:31:21;;;;;;;;;;;22.10;48.00;;;;;;5095537;28;972;-39
2022/04/09 08:33:49;;;;;;;;;;;22.20;48.10;;;;;;5096495;28;1027;-41
2022/04/09 08:36:15;;;;;;;;;;;22.20;48.10;;;;;;5096259;28;837;-42
2022/04/09 08:38:42;;;;;;;;;;;22.20;48.00;;;;;;5096220;28;1978;-40
2022/04/09 08:41:09;;;;;;;;;;;22.20;48.00;;;;;;5095611;28;984;-42
2022/04/09 08:43:36;;;;;;;;;;;22.20;48.00;;;;;;5096305;28;1174;-39
2022/04/09 08:46:03;;;;;;;;;;;22.20;48.00;;;;;;5096827;28;956;-41
2022/04/09 08:48:32;;;;;;;;;;;22.20;48.10;;;;;;5096718;28;956;-40
2022/04/09 08:51:00;;;;;;;;;;;22.20;48.00;;;;;;5096550;28;980;-39
2022/04/09 08:53:26;;;;;;;;;;;22.20;48.00;;;;;;5096854;28;1025;-39
2022/04/09 08:55:53;;;;;;;;;;;22.20;47.90;;;;;;5096144;28;937;-43
2022/04/09 08:58:20;;;;;;;;;;;22.30;47.80;;;;;;5096028;28;1909;-43
2022/04/09 09:00:48;;;;;;;;;;;22.20;47.70;;;;;;5096710;28;963;-39
2022/04/09 09:03:15;;;;;;;;;;;22.20;47.70;;;;;;5097298;28;997;-40
2022/04/09 09:05:45;;;;;;;;;;;22.20;47.70;;;;;;5096963;28;988;-40
2022/04/09 09:08:12;;;;;;;;;;;22.20;47.60;;;;;;5095079;28;996;-39
2022/04/09 09:10:39;;;;;;;;;;;22.30;47.60;;;;;;5095614;28;848;-42
2022/04/09 09:13:07;;;;;;;;;;;22.30;47.60;;;;;;5095640;28;988;-42
2022/04/09 09:15:45;;;;;;;;;;;22.30;47.60;;;;;;5095718;28;1099;-40
2022/04/09 09:18:18;;;;;;;;;;;22.30;47.60;;;;;;5096187;28;1991;-39
2022/04/09 09:20:49;;;;;;;;;;;22.30;47.50;;;;;;5097162;28;1008;-39
2022/04/09 09:23:19;;;;;;;;;;;22.30;47.50;;;;;;5096395;28;936;-39
2022/04/09 09:25:48;;;;;;;;;;;22.30;48.50;;;;;;5096183;28;877;-41
2022/04/09 09:28:22;;;;;;;;;;;22.30;47.60;;;;;;5095671;28;955;-39
2022/04/09 09:30:49;;;;;;;;;;;22.20;47.50;;;;;;5095562;28;1019;-40
2022/04/09 09:33:18;;;;;;;;;;;22.30;47.60;;;;;;5097059;28;1007;-44
2022/04/09 09:35:50;;;;;;;;;;;22.20;47.50;;;;;;5097545;28;968;-45
2022/04/09 09:38:21;;;;;;;;;;;22.20;47.60;;;;;;5098036;28;1999;-44
2022/04/09 09:40:48;;;;;;;;;;;22.20;47.70;;;;;;5096140;28;973;-45
2022/04/09 09:43:15;;;;;;;;;;;22.10;47.70;;;;;;5096887;28;960;-44
2022/04/09 09:45:42;;;;;;;;;;;22.10;47.80;;;;;;5096787;28;1032;-44
2022/04/09 09:48:19;;;;;;;;;;;22.10;47.70;;;;;;5095761;28;974;-45
2022/04/09 09:50:46;;;;;;;;;;;22.10;47.60;;;;;;5095365;28;1108;-44
2022/04/09 09:53:14;;;;;;;;;;;22.10;47.70;;;;;;5097583;28;1020;-45
2022/04/09 09:55:44;;;;;;;;;;;22.10;47.80;;;;;;5096681;28;1000;-45
2022/04/09 09:58:13;;;;;;;;;;;22.10;47.60;;;;;;5095297;28;1977;-44
2022/04/09 10:00:40;;;;;;;;;;;22.10;47.70;;;;;;5097597;28;1020;-44
2022/04/09 10:03:09;;;;;;;;;;;22.10;47.60;;;;;;5097405;28;1140;-44
2022/04/09 10:05:38;;;;;;;;;;;22.20;47.60;;;;;;5096846;28;949;-45
2022/04/09 10:08:05;;;;;;;;;;;22.10;47.70;;;;;;5095772;28;947;-45
2022/04/09 10:10:35;;;;;;;;;;;22.10;47.70;;;;;;5097716;28;1072;-45
2022/04/09 10:13:02;;;;;;;;;;;22.10;47.60;;;;;;5096274;28;1050;-44
2022/04/09 10:15:29;;;;;;;;;;;22.10;47.60;;;;;;5096751;28;1074;-45
2022/04/09 10:17:57;;;;;;;;;;;22.10;47.60;;;;;;5096756;28;1898;-45
2022/04/09 10:20:25;;;;;;;;;;;22.10;47.60;;;;;;5096481;28;984;-44
2022/04/09 10:22:55;;;;;;;;;;;22.10;47.60;;;;;;5097331;28;940;-45
2022/04/09 10:25:24;;;;;;;;;;;22.10;47.60;;;;;;5096095;28;984;-45
2022/04/09 10:27:53;;;;;;;;;;;22.10;47.60;;;;;;5097787;28;976;-44
2022/04/09 10:30:21;;;;;;;;;;;22.10;47.60;;;;;;5098256;28;996;-45
2022/04/09 10:32:50;;;;;;;;;;;22.10;47.60;;;;;;5095890;28;864;-45
2022/04/09 10:35:27;;;;;;;;;;;22.10;47.50;;;;;;5096586;28;1098;-44
2022/04/09 10:38:22;;;;;;;;;;;22.10;47.60;;;;;;5096005;28;1897;-45
2022/04/09 10:41:07;;;;;;;;;;;22.10;47.50;;;;;;5049200;28;1286;-45
2022/04/09 10:43:42;;;;;;;;;;;22.10;47.40;;;;;;5094392;28;1126;-44
2022/04/09 10:46:21;;;;;;;;;;;22.10;47.40;;;;;;5095245;28;948;-45
2022/04/09 10:48:48;;;;;;;;;;;22.10;47.40;;;;;;5094735;28;953;-44
2022/04/09 10:51:15;;;;;;;;;;;22.10;47.40;;;;;;5093487;28;880;-45
2022/04/09 10:53:43;;;;;;;;;;;22.10;47.40;;;;;;5095154;28;1005;-47
2022/04/09 10:56:11;;;;;;;;;;;22.10;47.40;;;;;;5095550;28;928;-45
2022/04/09 10:58:57;;;;;;;;;;;22.10;47.40;;;;;;5093363;28;1980;-44
2022/04/09 11:01:42;;;;;;;;;;;22.10;47.40;;;;;;5094605;28;936;-44
2022/04/09 11:04:27;;;;;;;;;;;22.10;47.40;;;;;;5088800;28;956;-45
2022/04/09 11:07:02;;;;;;;;;;;22.10;47.30;;;;;;5075453;28;1862;-44
2022/04/09 11:09:40;;;;;;;;;;;22.10;47.30;;;;;;5089511;28;1003;-43
2022/04/09 11:12:07;;;;;;;;;;;22.10;47.40;;;;;;5088818;28;980;-45
2022/04/09 11:14:41;;;;;;;;;;;22.10;47.40;;;;;;5088725;28;912;-45
2022/04/09 11:17:14;;;;;;;;;;;22.10;47.40;;;;;;5089283;28;976;-44
2022/04/09 11:19:42;;;;;;;;;;;22.10;47.30;;;;;;5088749;28;1921;-44
2022/04/09 11:22:10;;;;;;;;;;;22.10;47.20;;;;;;5088845;28;985;-44
2022/04/09 11:24:37;;;;;;;;;;;22.10;47.30;;;;;;5089585;28;916;-42
2022/04/09 11:27:04;;;;;;;;;;;22.10;47.30;;;;;;5088031;28;933;-43
2022/04/09 11:29:34;;;;;;;;;;;22.10;47.30;;;;;;5087480;28;1008;-41
2022/04/09 11:32:01;;;;;;;;;;;22.10;47.40;;;;;;5088893;28;971;-41
2022/04/09 11:34:28;;;;;;;;;;;22.10;47.30;;;;;;5088821;28;981;-43
2022/04/09 11:39:48;;;;;;;;;;;22.10;47.50;;;;;;5109122;27;1251;-42
2022/04/09 11:42:15;;;;;;;;;;;22.10;47.40;;;;;;5106053;28;896;-42
2022/04/09 11:44:42;;;;;;;;;;;22.10;47.50;;;;;;5106523;28;1197;-41
2022/04/09 11:47:09;;;;;;;;;;;22.10;47.50;;;;;;5107063;28;1000;-42
2022/04/09 11:49:36;;;;;;;;;;;22.10;47.40;;;;;;5106386;28;1022;-41
2022/04/09 11:52:03;;;;;;;;;;;22.10;47.50;;;;;;5106856;28;952;-42
2022/04/09 11:54:33;;;;;;;;;;;22.10;47.50;;;;;;5106014;28;1115;-43
2022/04/09 11:57:02;;;;;;;;;;;22.10;47.50;;;;;;5106860;28;906;-42
2022/04/09 11:59:29;;;;;;;;;;;22.10;47.60;;;;;;5108050;28;1990;-45
2022/04/09 12:01:56;;;;;;;;;;;22.10;47.40;;;;;;5104776;28;838;-42
2022/04/09 12:04:23;;;;;;;;;;;22.10;47.40;;;;;;5104538;28;1002;-43
2022/04/09 12:06:50;;;;;;;;;;;22.20;47.30;;;;;;5105855;28;1011;-42
2022/04/09 12:09:17;;;;;;;;;;;22.20;47.30;;;;;;5105686;28;1024;-42
2022/04/09 12:11:43;;;;;;;;;;;22.20;47.40;;;;;;5105612;28;861;-45
2022/04/09 12:14:13;;;;;;;;;;;22.20;47.30;;;;;;5096322;28;1962;-44
2022/04/09 12:16:40;;;;;;;;;;;22.20;47.40;;;;;;5083101;28;1113;-42
2022/04/09 12:19:07;;;;;;;;;;;22.10;47.20;;;;;;5085093;28;1991;-41
2022/04/09 12:21:35;;;;;;;;;;;22.20;47.40;;;;;;5084019;28;1111;-43
2022/04/09 12:24:02;;;;;;;;;;;22.20;47.30;;;;;;5084782;28;865;-42
2022/04/09 12:26:29;;;;;;;;;;;22.20;47.40;;;;;;5084524;28;1012;-43
2022/04/09 12:29:06;;;;;;;;;;;22.20;47.50;;;;;;5083024;28;838;-45
2022/04/09 12:31:34;;;;;;;;;;;22.10;47.40;;;;;;5083317;28;961;-43
2022/04/09 12:34:01;;;;;;;;;;;22.10;47.40;;;;;;5082579;28;940;-41
2022/04/09 12:36:28;;;;;;;;;;;22.10;47.80;;;;;;5084201;28;1100;-44
2022/04/09 12:38:55;;;;;;;;;;;22.10;47.60;;;;;;5083783;28;1902;-45
2022/04/09 12:41:21;;;;;;;;;;;22.20;47.60;;;;;;5084483;28;1051;-42
2022/04/09 12:43:52;;;;;;;;;;;22.10;47.90;;;;;;5084469;28;1415;-38
2022/04/09 12:46:19;;;;;;;;;;;22.20;47.60;;;;;;5085634;28;1016;-38
2022/04/09 12:48:49;;;;;;;;;;;22.20;47.50;;;;;;5084623;28;1001;-42
2022/04/09 12:51:18;;;;;;;;;;;22.20;47.50;;;;;;5070765;28;1004;-43
2022/04/09 12:53:45;;;;;;;;;;;22.10;47.60;;;;;;5071640;28;1012;-46
2022/04/09 12:56:13;;;;;;;;;;;22.10;47.50;;;;;;5072130;28;1026;-45
2022/04/09 12:58:41;;;;;;;;;;;22.10;47.60;;;;;;5072105;28;1976;-46
2022/04/09 13:01:10;;;;;;;;;;;22.10;47.50;;;;;;5072255;28;937;-47
2022/04/09 13:03:37;;;;;;;;;;;22.20;47.70;;;;;;5073258;28;838;-44
2022/04/09 13:06:06;;;;;;;;;;;22.10;47.80;;;;;;5070722;28;1010;-45
2022/04/09 13:08:32;;;;;;;;;;;22.10;47.70;;;;;;5069464;28;1008;-48
2022/04/09 13:11:00;;;;;;;;;;;22.10;47.60;;;;;;5070019;28;977;-46
2022/04/09 13:13:27;;;;;;;;;;;22.10;47.70;;;;;;5071929;28;897;-45
2022/04/09 13:15:53;;;;;;;;;;;22.10;47.60;;;;;;5070251;28;904;-45
2022/04/09 13:18:20;;;;;;;;;;;22.10;47.60;;;;;;5071581;28;1975;-45
2022/04/09 13:20:47;;;;;;;;;;;22.10;47.60;;;;;;5070427;28;992;-45
2022/04/09 13:23:15;;;;;;;;;;;22.10;47.80;;;;;;5070436;28;945;-46
2022/04/09 13:25:43;;;;;;;;;;;22.00;47.70;;;;;;5070605;28;936;-46
2022/04/09 13:28:13;;;;;;;;;;;22.10;47.70;;;;;;5070392;28;1006;-45
2022/04/09 13:30:41;;;;;;;;;;;22.10;47.70;;;;;;5071296;28;1184;-46
2022/04/09 13:33:08;;;;;;;;;;;22.10;47.80;;;;;;5069402;28;997;-45
2022/04/09 13:35:35;;;;;;;;;;;22.10;47.70;;;;;;5069321;28;896;-45
2022/04/09 13:38:01;;;;;;;;;;;22.10;47.60;;;;;;5068618;28;1919;-45
2022/04/09 13:40:30;;;;;;;;;;;22.10;47.60;;;;;;5070105;28;978;-46
2022/04/09 13:42:56;;;;;;;;;;;22.10;47.60;;;;;;5070026;28;953;-45
2022/04/09 13:45:23;;;;;;;;;;;22.20;47.60;;;;;;5068820;28;1104;-46
2022/04/09 13:47:52;;;;;;;;;;;22.20;47.70;;;;;;5068731;28;940;-45
2022/04/09 13:50:20;;;;;;;;;;;22.20;47.60;;;;;;5069123;28;991;-45
2022/04/09 13:52:46;;;;;;;;;;;22.20;47.60;;;;;;5067205;28;818;-46
2022/04/09 13:55:13;;;;;;;;;;;22.20;47.50;;;;;;5066715;28;1001;-46
2022/04/09 13:57:42;;;;;;;;;;;22.20;47.50;;;;;;5070236;28;952;-46
2022/04/09 14:00:09;;;;;;;;;;;22.20;47.50;;;;;;5069484;28;1905;-45
2022/04/09 14:02:37;;;;;;;;;;;22.20;47.50;;;;;;5068124;28;1040;-46
2022/04/09 14:05:05;;;;;;;;;;;22.30;47.50;;;;;;5068087;28;990;-46
2022/04/09 14:07:32;;;;;;;;;;;22.20;47.50;;;;;;5069325;28;918;-45
2022/04/09 14:09:59;;;;;;;;;;;22.30;47.50;;;;;;5070135;28;973;-46
2022/04/09 14:12:26;;;;;;;;;;;22.30;47.50;;;;;;5068961;28;904;-45
2022/04/09 14:14:54;;;;;;;;;;;22.30;47.30;;;;;;5070074;28;988;-46
2022/04/09 14:17:20;;;;;;;;;;;22.40;47.30;;;;;;5069775;28;1043;-46
2022/04/09 14:19:47;;;;;;;;;;;22.40;47.10;;;;;;5066276;28;1985;-45
2022/04/09 14:22:14;;;;;;;;;;;22.40;47.00;;;;;;5066737;28;882;-47
2022/04/09 14:24:41;;;;;;;;;;;22.50;47.00;;;;;;5067229;28;960;-47
2022/04/09 14:27:07;;;;;;;;;;;22.50;46.90;;;;;;5068518;28;1016;-46
2022/04/09 14:29:35;;;;;;;;;;;22.60;46.90;;;;;;5068410;28;936;-47
2022/04/09 14:32:03;;;;;;;;;;;22.50;46.90;;;;;;5068082;28;1074;-46
2022/04/09 14:34:30;;;;;;;;;;;22.50;47.00;;;;;;5068881;28;1001;-47
2022/04/09 14:36:56;;;;;;;;;;;22.60;47.40;;;;;;5068019;28;948;-48
2022/04/09 14:39:23;;;;;;;;;;;22.50;48.60;;;;;;5067417;28;1905;-48
2022/04/09 14:41:50;;;;;;;;;;;22.60;47.60;;;;;;5068698;28;940;-47